sensor_id;sensor_type;location;lat;lon;timestamp;temperature;humidity
57566;DHT22;63999;43.882;-0.310;2022-11-27T00:01:21;8.90;76.30
57566;DHT22;63999;43.882;-0.310;2022-11-27T00:03:47;8.90;76.20
57566;DHT22;63999;43.882;-0.310;2022-11-27T00:06:15;8.90;76.40
57566;DHT22;63999;43.882;-0.310;2022-11-27T00:08:42;8.80;76.40
57566;DHT22;63999;43.882;-0.310;2022-11-27T00:11:11;8.90;76.40
57566;DHT22;63999;43.882;-0.310;2022-11-27T00:13:37;8.80;76.10
57566;DHT22;63999;43.882;-0.310;2022-11-27T00:16:04;8.80;75.50
57566;DHT22;63999;43.882;-0.310;2022-11-27T00:18:30;8.80;75.70
57566;DHT22;63999;43.882;-0.310;2022-11-27T00:21:04;8.80;76.20
57566;DHT22;63999;43.882;-0.310;2022-11-27T00:23:31;8.80;76.10
57566;DHT22;63999;43.882;-0.310;2022-11-27T00:25:57;8.70;76.00
57566;DHT22;63999;43.882;-0.310;2022-11-27T00:28:23;8.70;75.90
57566;DHT22;63999;43.882;-0.310;2022-11-27T00:30:49;8.70;75.90
57566;DHT22;63999;43.882;-0.310;2022-11-27T00:33:14;8.60;76.30
57566;DHT22;63999;43.882;-0.310;2022-11-27T00:35:40;8.60;76.00
57566;DHT22;63999;43.882;-0.310;2022-11-27T00:38:06;8.60;75.80
57566;DHT22;63999;43.882;-0.310;2022-11-27T00:40:32;8.60;76.40
57566;DHT22;63999;43.882;-0.310;2022-11-27T00:42:58;8.60;76.10
57566;DHT22;63999;43.882;-0.310;2022-11-27T00:45:26;8.60;76.10
57566;DHT22;63999;43.882;-0.310;2022-11-27T00:47:52;8.60;75.90
57566;DHT22;63999;43.882;-0.310;2022-11-27T00:50:17;8.50;76.50
57566;DHT22;63999;43.882;-0.310;2022-11-27T00:52:43;8.50;76.50
57566;DHT22;63999;43.882;-0.310;2022-11-27T00:55:09;8.50;76.70
57566;DHT22;63999;43.882;-0.310;2022-11-27T00:57:35;8.50;76.40
57566;DHT22;63999;43.882;-0.310;2022-11-27T01:00:00;8.50;76.50
57566;DHT22;63999;43.882;-0.310;2022-11-27T01:02:26;8.40;76.10
57566;DHT22;63999;43.882;-0.310;2022-11-27T01:04:52;8.40;76.50
57566;DHT22;63999;43.882;-0.310;2022-11-27T01:07:17;8.40;76.30
57566;DHT22;63999;43.882;-0.310;2022-11-27T01:09:43;8.40;76.10
57566;DHT22;63999;43.882;-0.310;2022-11-27T01:12:09;8.40;76.40
57566;DHT22;63999;43.882;-0.310;2022-11-27T01:14:35;8.40;76.20
57566;DHT22;63999;43.882;-0.310;2022-11-27T01:17:01;8.30;76.50
57566;DHT22;63999;43.882;-0.310;2022-11-27T01:19:26;8.30;76.20
57566;DHT22;63999;43.882;-0.310;2022-11-27T01:21:52;8.30;76.00
57566;DHT22;63999;43.882;-0.310;2022-11-27T01:24:19;8.30;75.80
57566;DHT22;63999;43.882;-0.310;2022-11-27T01:26:45;8.30;75.80
57566;DHT22;63999;43.882;-0.310;2022-11-27T01:29:11;8.30;75.70
57566;DHT22;63999;43.882;-0.310;2022-11-27T01:31:37;8.30;76.20
57566;DHT22;63999;43.882;-0.310;2022-11-27T01:34:06;8.30;76.40
57566;DHT22;63999;43.882;-0.310;2022-11-27T01:36:33;8.30;76.20
57566;DHT22;63999;43.882;-0.310;2022-11-27T01:38:59;8.20;76.90
57566;DHT22;63999;43.882;-0.310;2022-11-27T01:41:31;8.20;75.90
57566;DHT22;63999;43.882;-0.310;2022-11-27T01:44:00;8.20;76.40
57566;DHT22;63999;43.882;-0.310;2022-11-27T01:46:45;8.20;75.70
57566;DHT22;63999;43.882;-0.310;2022-11-27T01:49:40;8.20;76.00
57566;DHT22;63999;43.882;-0.310;2022-11-27T01:55:02;8.20;75.90
57566;DHT22;63999;43.882;-0.310;2022-11-27T01:57:42;8.20;75.70
57566;DHT22;63999;43.882;-0.310;2022-11-27T02:00:11;8.20;75.50
57566;DHT22;63999;43.882;-0.310;2022-11-27T02:02:39;8.20;75.40
57566;DHT22;63999;43.882;-0.310;2022-11-27T02:05:05;8.20;76.20
57566;DHT22;63999;43.882;-0.310;2022-11-27T02:07:31;8.20;75.80
57566;DHT22;63999;43.882;-0.310;2022-11-27T02:09:57;8.20;76.30
57566;DHT22;63999;43.882;-0.310;2022-11-27T02:12:49;8.20;76.00
57566;DHT22;63999;43.882;-0.310;2022-11-27T02:31:01;8.10;76.10
57566;DHT22;63999;43.882;-0.310;2022-11-27T02:33:28;8.10;76.30
57566;DHT22;63999;43.882;-0.310;2022-11-27T02:36:06;8.10;75.80
57566;DHT22;63999;43.882;-0.310;2022-11-27T02:38:42;8.20;76.00
57566;DHT22;63999;43.882;-0.310;2022-11-27T02:41:17;8.20;76.10
57566;DHT22;63999;43.882;-0.310;2022-11-27T02:43:46;8.10;76.10
57566;DHT22;63999;43.882;-0.310;2022-11-27T02:46:13;8.10;76.20
57566;DHT22;63999;43.882;-0.310;2022-11-27T02:48:57;8.10;76.00
57566;DHT22;63999;43.882;-0.310;2022-11-27T02:51:34;8.10;76.30
57566;DHT22;63999;43.882;-0.310;2022-11-27T02:54:04;8.10;76.20
57566;DHT22;63999;43.882;-0.310;2022-11-27T02:56:32;8.10;76.10
57566;DHT22;63999;43.882;-0.310;2022-11-27T02:59:02;8.10;76.20
57566;DHT22;63999;43.882;-0.310;2022-11-27T03:01:32;8.10;76.50
57566;DHT22;63999;43.882;-0.310;2022-11-27T03:04:00;8.10;76.50
57566;DHT22;63999;43.882;-0.310;2022-11-27T03:06:35;8.00;76.50
57566;DHT22;63999;43.882;-0.310;2022-11-27T03:09:11;8.00;76.40
57566;DHT22;63999;43.882;-0.310;2022-11-27T03:11:38;8.00;76.60
57566;DHT22;63999;43.882;-0.310;2022-11-27T03:14:07;8.00;76.40
57566;DHT22;63999;43.882;-0.310;2022-11-27T03:21:52;8.10;76.60
57566;DHT22;63999;43.882;-0.310;2022-11-27T03:24:18;8.10;76.60
57566;DHT22;63999;43.882;-0.310;2022-11-27T03:26:44;8.10;76.80
57566;DHT22;63999;43.882;-0.310;2022-11-27T03:29:14;8.00;76.50
57566;DHT22;63999;43.882;-0.310;2022-11-27T03:31:41;8.00;76.20
57566;DHT22;63999;43.882;-0.310;2022-11-27T03:34:07;8.00;76.60
57566;DHT22;63999;43.882;-0.310;2022-11-27T03:36:33;8.00;76.80
57566;DHT22;63999;43.882;-0.310;2022-11-27T03:38:58;8.00;76.50
57566;DHT22;63999;43.882;-0.310;2022-11-27T03:44:46;8.00;76.60
57566;DHT22;63999;43.882;-0.310;2022-11-27T03:49:53;8.00;76.10
57566;DHT22;63999;43.882;-0.310;2022-11-27T03:52:38;8.00;76.60
57566;DHT22;63999;43.882;-0.310;2022-11-27T03:57:59;8.00;76.60
57566;DHT22;63999;43.882;-0.310;2022-11-27T04:00:31;8.00;76.80
57566;DHT22;63999;43.882;-0.310;2022-11-27T04:02:57;8.00;76.50
57566;DHT22;63999;43.882;-0.310;2022-11-27T04:05:23;8.00;76.50
57566;DHT22;63999;43.882;-0.310;2022-11-27T04:07:49;8.00;77.00
57566;DHT22;63999;43.882;-0.310;2022-11-27T04:10:15;8.00;76.80
57566;DHT22;63999;43.882;-0.310;2022-11-27T04:12:41;8.00;76.90
57566;DHT22;63999;43.882;-0.310;2022-11-27T04:15:07;7.90;76.70
57566;DHT22;63999;43.882;-0.310;2022-11-27T04:17:33;8.00;76.70
57566;DHT22;63999;43.882;-0.310;2022-11-27T04:19:59;7.90;76.60
57566;DHT22;63999;43.882;-0.310;2022-11-27T04:22:25;7.90;76.90
57566;DHT22;63999;43.882;-0.310;2022-11-27T04:24:50;7.80;76.90
57566;DHT22;63999;43.882;-0.310;2022-11-27T04:27:16;7.90;76.60
57566;DHT22;63999;43.882;-0.310;2022-11-27T04:29:42;7.90;76.30
57566;DHT22;63999;43.882;-0.310;2022-11-27T04:32:08;7.90;76.30
57566;DHT22;63999;43.882;-0.310;2022-11-27T04:34:34;7.90;76.80
57566;DHT22;63999;43.882;-0.310;2022-11-27T04:36:59;7.80;76.70
57566;DHT22;63999;43.882;-0.310;2022-11-27T04:39:25;7.80;76.60
57566;DHT22;63999;43.882;-0.310;2022-11-27T04:41:51;7.80;76.50
57566;DHT22;63999;43.882;-0.310;2022-11-27T04:44:17;7.80;76.80
57566;DHT22;63999;43.882;-0.310;2022-11-27T04:46:43;7.80;76.70
57566;DHT22;63999;43.882;-0.310;2022-11-27T04:49:09;7.80;76.80
57566;DHT22;63999;43.882;-0.310;2022-11-27T04:51:35;7.80;76.90
57566;DHT22;63999;43.882;-0.310;2022-11-27T04:54:01;7.80;76.50
57566;DHT22;63999;43.882;-0.310;2022-11-27T04:56:27;7.80;76.60
57566;DHT22;63999;43.882;-0.310;2022-11-27T04:58:53;7.80;76.50
57566;DHT22;63999;43.882;-0.310;2022-11-27T05:01:19;7.70;76.60
57566;DHT22;63999;43.882;-0.310;2022-11-27T05:03:46;7.80;76.70
57566;DHT22;63999;43.882;-0.310;2022-11-27T05:06:12;7.80;76.50
57566;DHT22;63999;43.882;-0.310;2022-11-27T05:08:38;7.80;76.20
57566;DHT22;63999;43.882;-0.310;2022-11-27T05:11:10;7.80;76.60
57566;DHT22;63999;43.882;-0.310;2022-11-27T05:13:37;7.80;76.40
57566;DHT22;63999;43.882;-0.310;2022-11-27T05:16:03;7.80;76.80
57566;DHT22;63999;43.882;-0.310;2022-11-27T05:18:29;7.80;76.60
57566;DHT22;63999;43.882;-0.310;2022-11-27T05:20:58;7.80;76.70
57566;DHT22;63999;43.882;-0.310;2022-11-27T05:23:25;7.80;76.80
57566;DHT22;63999;43.882;-0.310;2022-11-27T05:25:51;7.80;76.60
57566;DHT22;63999;43.882;-0.310;2022-11-27T05:28:17;7.80;76.50
57566;DHT22;63999;43.882;-0.310;2022-11-27T05:30:42;7.80;76.50
57566;DHT22;63999;43.882;-0.310;2022-11-27T05:33:08;7.80;76.70
57566;DHT22;63999;43.882;-0.310;2022-11-27T05:35:34;7.80;76.60
57566;DHT22;63999;43.882;-0.310;2022-11-27T05:38:00;7.80;76.60
57566;DHT22;63999;43.882;-0.310;2022-11-27T05:40:25;7.80;76.50
57566;DHT22;63999;43.882;-0.310;2022-11-27T05:42:51;7.70;76.40
57566;DHT22;63999;43.882;-0.310;2022-11-27T05:45:17;7.80;76.50
57566;DHT22;63999;43.882;-0.310;2022-11-27T05:47:42;7.70;76.60
57566;DHT22;63999;43.882;-0.310;2022-11-27T05:50:08;7.70;76.50
57566;DHT22;63999;43.882;-0.310;2022-11-27T05:52:34;7.70;76.30
57566;DHT22;63999;43.882;-0.310;2022-11-27T05:55:00;7.70;76.30
57566;DHT22;63999;43.882;-0.310;2022-11-27T05:57:25;7.70;76.40
57566;DHT22;63999;43.882;-0.310;2022-11-27T05:59:52;7.60;76.00
57566;DHT22;63999;43.882;-0.310;2022-11-27T06:02:18;7.60;76.60
57566;DHT22;63999;43.882;-0.310;2022-11-27T06:04:44;7.60;76.60
57566;DHT22;63999;43.882;-0.310;2022-11-27T06:07:10;7.60;76.20
57566;DHT22;63999;43.882;-0.310;2022-11-27T06:09:39;7.60;76.60
57566;DHT22;63999;43.882;-0.310;2022-11-27T06:12:05;7.50;76.40
57566;DHT22;63999;43.882;-0.310;2022-11-27T06:14:30;7.50;76.20
57566;DHT22;63999;43.882;-0.310;2022-11-27T06:16:58;7.50;76.00
57566;DHT22;63999;43.882;-0.310;2022-11-27T06:19:24;7.50;75.90
57566;DHT22;63999;43.882;-0.310;2022-11-27T06:21:50;7.50;76.10
57566;DHT22;63999;43.882;-0.310;2022-11-27T06:24:15;7.50;76.20
57566;DHT22;63999;43.882;-0.310;2022-11-27T06:26:41;7.50;76.60
57566;DHT22;63999;43.882;-0.310;2022-11-27T06:29:08;7.50;76.20
57566;DHT22;63999;43.882;-0.310;2022-11-27T06:31:34;7.50;76.30
57566;DHT22;63999;43.882;-0.310;2022-11-27T06:34:01;7.50;76.20
57566;DHT22;63999;43.882;-0.310;2022-11-27T06:36:32;7.40;76.30
57566;DHT22;63999;43.882;-0.310;2022-11-27T06:38:58;7.40;76.00
57566;DHT22;63999;43.882;-0.310;2022-11-27T06:41:24;7.40;76.00
57566;DHT22;63999;43.882;-0.310;2022-11-27T06:43:51;7.40;76.00
57566;DHT22;63999;43.882;-0.310;2022-11-27T06:46:20;7.40;75.90
57566;DHT22;63999;43.882;-0.310;2022-11-27T06:48:47;7.40;76.00
57566;DHT22;63999;43.882;-0.310;2022-11-27T06:51:16;7.40;75.60
57566;DHT22;63999;43.882;-0.310;2022-11-27T06:53:43;7.40;75.60
57566;DHT22;63999;43.882;-0.310;2022-11-27T06:56:12;7.40;75.50
57566;DHT22;63999;43.882;-0.310;2022-11-27T06:58:38;7.40;75.50
57566;DHT22;63999;43.882;-0.310;2022-11-27T07:01:11;7.40;75.50
57566;DHT22;63999;43.882;-0.310;2022-11-27T07:03:37;7.30;75.70
57566;DHT22;63999;43.882;-0.310;2022-11-27T07:06:04;7.30;76.10
57566;DHT22;63999;43.882;-0.310;2022-11-27T07:08:30;7.20;75.00
57566;DHT22;63999;43.882;-0.310;2022-11-27T07:11:05;7.20;75.70
57566;DHT22;63999;43.882;-0.310;2022-11-27T07:13:31;7.20;75.70
57566;DHT22;63999;43.882;-0.310;2022-11-27T07:16:10;7.20;75.40
57566;DHT22;63999;43.882;-0.310;2022-11-27T07:18:39;7.20;75.50
57566;DHT22;63999;43.882;-0.310;2022-11-27T07:21:05;7.20;75.80
57566;DHT22;63999;43.882;-0.310;2022-11-27T07:23:31;7.20;75.60
57566;DHT22;63999;43.882;-0.310;2022-11-27T07:25:57;7.20;75.50
57566;DHT22;63999;43.882;-0.310;2022-11-27T07:28:23;7.20;75.20
57566;DHT22;63999;43.882;-0.310;2022-11-27T07:30:56;7.20;75.40
57566;DHT22;63999;43.882;-0.310;2022-11-27T07:33:23;7.20;75.60
57566;DHT22;63999;43.882;-0.310;2022-11-27T07:35:56;7.20;75.80
57566;DHT22;63999;43.882;-0.310;2022-11-27T07:38:22;7.20;75.70
57566;DHT22;63999;43.882;-0.310;2022-11-27T07:40:48;7.20;75.60
57566;DHT22;63999;43.882;-0.310;2022-11-27T07:43:13;7.20;76.00
57566;DHT22;63999;43.882;-0.310;2022-11-27T07:45:39;7.20;76.10
57566;DHT22;63999;43.882;-0.310;2022-11-27T07:48:05;7.20;76.20
57566;DHT22;63999;43.882;-0.310;2022-11-27T07:50:30;7.20;76.20
57566;DHT22;63999;43.882;-0.310;2022-11-27T07:52:57;7.20;76.20
57566;DHT22;63999;43.882;-0.310;2022-11-27T07:55:23;7.20;75.80
57566;DHT22;63999;43.882;-0.310;2022-11-27T07:57:49;7.20;76.10
57566;DHT22;63999;43.882;-0.310;2022-11-27T08:00:15;7.20;76.10
57566;DHT22;63999;43.882;-0.310;2022-11-27T08:02:40;7.20;75.70
57566;DHT22;63999;43.882;-0.310;2022-11-27T08:05:07;7.20;76.00
57566;DHT22;63999;43.882;-0.310;2022-11-27T08:07:32;7.20;76.00
57566;DHT22;63999;43.882;-0.310;2022-11-27T08:09:58;7.20;76.00
57566;DHT22;63999;43.882;-0.310;2022-11-27T08:12:25;7.20;76.20
57566;DHT22;63999;43.882;-0.310;2022-11-27T08:14:51;7.20;76.10
57566;DHT22;63999;43.882;-0.310;2022-11-27T08:17:17;7.20;75.70
57566;DHT22;63999;43.882;-0.310;2022-11-27T08:19:43;7.20;75.60
57566;DHT22;63999;43.882;-0.310;2022-11-27T08:22:13;7.20;75.60
57566;DHT22;63999;43.882;-0.310;2022-11-27T08:24:40;7.30;76.10
57566;DHT22;63999;43.882;-0.310;2022-11-27T08:27:09;7.30;75.10
57566;DHT22;63999;43.882;-0.310;2022-11-27T08:29:39;7.30;75.70
57566;DHT22;63999;43.882;-0.310;2022-11-27T08:32:05;7.30;75.40
57566;DHT22;63999;43.882;-0.310;2022-11-27T08:34:31;7.30;75.80
57566;DHT22;63999;43.882;-0.310;2022-11-27T08:36:56;7.40;75.80
57566;DHT22;63999;43.882;-0.310;2022-11-27T08:39:22;7.40;75.70
57566;DHT22;63999;43.882;-0.310;2022-11-27T08:41:51;7.40;75.90
57566;DHT22;63999;43.882;-0.310;2022-11-27T08:44:16;7.40;76.10
57566;DHT22;63999;43.882;-0.310;2022-11-27T08:46:43;7.40;75.90
57566;DHT22;63999;43.882;-0.310;2022-11-27T08:49:10;7.30;76.10
57566;DHT22;63999;43.882;-0.310;2022-11-27T08:51:36;7.30;76.20
57566;DHT22;63999;43.882;-0.310;2022-11-27T08:54:02;7.40;76.30
57566;DHT22;63999;43.882;-0.310;2022-11-27T08:56:28;7.40;76.40
57566;DHT22;63999;43.882;-0.310;2022-11-27T08:58:58;7.40;76.40
57566;DHT22;63999;43.882;-0.310;2022-11-27T09:01:27;7.40;76.10
57566;DHT22;63999;43.882;-0.310;2022-11-27T09:03:53;7.40;76.40
57566;DHT22;63999;43.882;-0.310;2022-11-27T09:06:22;7.40;76.30
57566;DHT22;63999;43.882;-0.310;2022-11-27T09:08:49;7.40;76.40
57566;DHT22;63999;43.882;-0.310;2022-11-27T09:11:17;7.40;76.20
57566;DHT22;63999;43.882;-0.310;2022-11-27T09:13:44;7.40;76.50
57566;DHT22;63999;43.882;-0.310;2022-11-27T09:16:12;7.40;76.60
57566;DHT22;63999;43.882;-0.310;2022-11-27T09:18:39;7.40;76.50
57566;DHT22;63999;43.882;-0.310;2022-11-27T09:21:07;7.40;76.70
57566;DHT22;63999;43.882;-0.310;2022-11-27T09:23:34;7.40;76.70
57566;DHT22;63999;43.882;-0.310;2022-11-27T09:26:01;7.40;76.90
57566;DHT22;63999;43.882;-0.310;2022-11-27T09:28:27;7.40;76.90
57566;DHT22;63999;43.882;-0.310;2022-11-27T09:30:55;7.40;76.80
57566;DHT22;63999;43.882;-0.310;2022-11-27T09:33:23;7.40;77.00
57566;DHT22;63999;43.882;-0.310;2022-11-27T09:35:49;7.40;76.90
57566;DHT22;63999;43.882;-0.310;2022-11-27T09:38:15;7.50;77.00
57566;DHT22;63999;43.882;-0.310;2022-11-27T09:40:50;7.50;76.90
57566;DHT22;63999;43.882;-0.310;2022-11-27T09:43:23;7.50;76.90
57566;DHT22;63999;43.882;-0.310;2022-11-27T09:45:54;7.50;76.90
57566;DHT22;63999;43.882;-0.310;2022-11-27T09:48:35;7.50;77.20
57566;DHT22;63999;43.882;-0.310;2022-11-27T09:51:11;7.50;77.20
57566;DHT22;63999;43.882;-0.310;2022-11-27T09:53:59;7.50;77.30
57566;DHT22;63999;43.882;-0.310;2022-11-27T09:56:28;7.50;77.40
57566;DHT22;63999;43.882;-0.310;2022-11-27T09:58:58;7.50;77.50
57566;DHT22;63999;43.882;-0.310;2022-11-27T10:01:30;7.50;77.40
57566;DHT22;63999;43.882;-0.310;2022-11-27T10:03:57;7.50;77.50
57566;DHT22;63999;43.882;-0.310;2022-11-27T10:06:33;7.60;77.50
57566;DHT22;63999;43.882;-0.310;2022-11-27T10:17:03;7.80;77.30
57566;DHT22;63999;43.882;-0.310;2022-11-27T10:22:26;7.80;77.40
57566;DHT22;63999;43.882;-0.310;2022-11-27T10:25:02;7.70;77.30
57566;DHT22;63999;43.882;-0.310;2022-11-27T10:27:37;7.80;77.50
57566;DHT22;63999;43.882;-0.310;2022-11-27T10:30:17;7.80;77.70
57566;DHT22;63999;43.882;-0.310;2022-11-27T10:32:46;7.80;77.90
57566;DHT22;63999;43.882;-0.310;2022-11-27T10:35:18;7.80;77.80
57566;DHT22;63999;43.882;-0.310;2022-11-27T10:37:45;7.80;78.00
57566;DHT22;63999;43.882;-0.310;2022-11-27T10:45:48;7.80;77.90
57566;DHT22;63999;43.882;-0.310;2022-11-27T10:48:15;7.80;78.00
57566;DHT22;63999;43.882;-0.310;2022-11-27T10:50:42;7.80;78.20
57566;DHT22;63999;43.882;-0.310;2022-11-27T10:53:16;7.90;78.20
57566;DHT22;63999;43.882;-0.310;2022-11-27T10:58:27;7.80;78.40
57566;DHT22;63999;43.882;-0.310;2022-11-27T11:01:16;7.80;78.40
57566;DHT22;63999;43.882;-0.310;2022-11-27T11:03:42;7.90;78.50
57566;DHT22;63999;43.882;-0.310;2022-11-27T11:06:24;7.90;78.30
57566;DHT22;63999;43.882;-0.310;2022-11-27T11:11:42;8.00;78.40
57566;DHT22;63999;43.882;-0.310;2022-11-27T11:14:16;8.00;78.10
57566;DHT22;63999;43.882;-0.310;2022-11-27T11:16:43;8.00;78.40
57566;DHT22;63999;43.882;-0.310;2022-11-27T11:19:38;8.00;78.40
57566;DHT22;63999;43.882;-0.310;2022-11-27T11:22:13;8.00;78.40
57566;DHT22;63999;43.882;-0.310;2022-11-27T11:24:44;8.00;78.10
57566;DHT22;63999;43.882;-0.310;2022-11-27T11:27:18;8.10;78.20
57566;DHT22;63999;43.882;-0.310;2022-11-27T11:34:50;8.10;78.00
57566;DHT22;63999;43.882;-0.310;2022-11-27T11:37:24;8.10;77.90
57566;DHT22;63999;43.882;-0.310;2022-11-27T11:40:02;8.10;78.10
57566;DHT22;63999;43.882;-0.310;2022-11-27T11:42:31;8.20;78.40
57566;DHT22;63999;43.882;-0.310;2022-11-27T11:45:11;8.20;78.30
57566;DHT22;63999;43.882;-0.310;2022-11-27T11:47:58;8.20;78.70
57566;DHT22;63999;43.882;-0.310;2022-11-27T11:50:26;8.20;78.50
57566;DHT22;63999;43.882;-0.310;2022-11-27T11:53:01;8.20;78.70
57566;DHT22;63999;43.882;-0.310;2022-11-27T11:58:41;8.20;78.20
57566;DHT22;63999;43.882;-0.310;2022-11-27T12:01:34;8.30;78.80
57566;DHT22;63999;43.882;-0.310;2022-11-27T12:10:02;8.30;78.90
57566;DHT22;63999;43.882;-0.310;2022-11-27T12:15:41;8.40;78.60
57566;DHT22;63999;43.882;-0.310;2022-11-27T12:18:23;8.40;78.70
57566;DHT22;63999;43.882;-0.310;2022-11-27T12:34:56;8.50;79.40
57566;DHT22;63999;43.882;-0.310;2022-11-27T12:40:25;8.50;79.30
57566;DHT22;63999;43.882;-0.310;2022-11-27T12:43:09;8.50;79.30
57566;DHT22;63999;43.882;-0.310;2022-11-27T12:45:46;8.60;79.00
57566;DHT22;63999;43.882;-0.310;2022-11-27T12:58:47;8.60;79.30
57566;DHT22;63999;43.882;-0.310;2022-11-27T13:01:39;8.60;78.70
57566;DHT22;63999;43.882;-0.310;2022-11-27T13:04:27;8.60;79.00
57566;DHT22;63999;43.882;-0.310;2022-11-27T13:07:02;8.60;79.10
57566;DHT22;63999;43.882;-0.310;2022-11-27T13:09:58;8.60;79.20
57566;DHT22;63999;43.882;-0.310;2022-11-27T13:12:35;8.60;78.80
57566;DHT22;63999;43.882;-0.310;2022-11-27T13:15:18;8.70;78.70
57566;DHT22;63999;43.882;-0.310;2022-11-27T13:17:49;8.70;78.90
57566;DHT22;63999;43.882;-0.310;2022-11-27T13:20:22;8.70;79.40
57566;DHT22;63999;43.882;-0.310;2022-11-27T13:22:50;8.70;79.70
57566;DHT22;63999;43.882;-0.310;2022-11-27T13:25:16;8.70;79.00
57566;DHT22;63999;43.882;-0.310;2022-11-27T13:27:48;8.70;78.90
57566;DHT22;63999;43.882;-0.310;2022-11-27T13:30:27;8.70;78.90
57566;DHT22;63999;43.882;-0.310;2022-11-27T13:32:57;8.80;79.20
57566;DHT22;63999;43.882;-0.310;2022-11-27T13:35:42;8.80;78.90
57566;DHT22;63999;43.882;-0.310;2022-11-27T13:38:22;8.80;79.00
57566;DHT22;63999;43.882;-0.310;2022-11-27T13:40:51;8.80;78.80
57566;DHT22;63999;43.882;-0.310;2022-11-27T13:43:30;8.80;79.60
57566;DHT22;63999;43.882;-0.310;2022-11-27T13:46:22;8.80;79.50
57566;DHT22;63999;43.882;-0.310;2022-11-27T13:49:02;8.90;79.60
57566;DHT22;63999;43.882;-0.310;2022-11-27T13:51:37;8.90;79.60
57566;DHT22;63999;43.882;-0.310;2022-11-27T13:54:15;8.90;79.30
57566;DHT22;63999;43.882;-0.310;2022-11-27T13:56:43;8.90;79.30
57566;DHT22;63999;43.882;-0.310;2022-11-27T13:59:16;9.00;79.40
57566;DHT22;63999;43.882;-0.310;2022-11-27T14:01:56;9.00;79.30
57566;DHT22;63999;43.882;-0.310;2022-11-27T14:04:23;9.00;79.50
57566;DHT22;63999;43.882;-0.310;2022-11-27T14:07:00;9.00;79.10
57566;DHT22;63999;43.882;-0.310;2022-11-27T14:09:46;9.00;79.30
57566;DHT22;63999;43.882;-0.310;2022-11-27T14:12:20;9.00;79.40
57566;DHT22;63999;43.882;-0.310;2022-11-27T14:17:38;9.00;79.70
57566;DHT22;63999;43.882;-0.310;2022-11-27T14:20:29;9.00;79.10
57566;DHT22;63999;43.882;-0.310;2022-11-27T14:22:57;9.00;79.90
57566;DHT22;63999;43.882;-0.310;2022-11-27T14:25:32;9.00;79.80
57566;DHT22;63999;43.882;-0.310;2022-11-27T14:28:20;9.10;79.60
57566;DHT22;63999;43.882;-0.310;2022-11-27T14:30:52;9.00;79.60
57566;DHT22;63999;43.882;-0.310;2022-11-27T14:33:26;9.00;79.90
57566;DHT22;63999;43.882;-0.310;2022-11-27T14:35:54;9.10;80.00
57566;DHT22;63999;43.882;-0.310;2022-11-27T14:38:21;9.10;79.70
57566;DHT22;63999;43.882;-0.310;2022-11-27T14:40:48;9.10;79.70
57566;DHT22;63999;43.882;-0.310;2022-11-27T14:43:20;9.10;79.80
57566;DHT22;63999;43.882;-0.310;2022-11-27T14:45:51;9.10;79.40
57566;DHT22;63999;43.882;-0.310;2022-11-27T14:48:25;9.10;79.70
57566;DHT22;63999;43.882;-0.310;2022-11-27T14:50:54;9.10;79.90
57566;DHT22;63999;43.882;-0.310;2022-11-27T14:53:28;9.20;79.90
57566;DHT22;63999;43.882;-0.310;2022-11-27T14:55:56;9.20;79.60
57566;DHT22;63999;43.882;-0.310;2022-11-27T14:58:25;9.20;79.90
57566;DHT22;63999;43.882;-0.310;2022-11-27T15:01:04;9.20;79.70
57566;DHT22;63999;43.882;-0.310;2022-11-27T15:03:31;9.20;80.00
57566;DHT22;63999;43.882;-0.310;2022-11-27T15:06:03;9.20;79.60
57566;DHT22;63999;43.882;-0.310;2022-11-27T15:08:34;9.20;79.60
57566;DHT22;63999;43.882;-0.310;2022-11-27T15:11:05;9.20;79.50
57566;DHT22;63999;43.882;-0.310;2022-11-27T15:13:34;9.20;79.80
57566;DHT22;63999;43.882;-0.310;2022-11-27T15:16:15;9.20;79.80
57566;DHT22;63999;43.882;-0.310;2022-11-27T15:18:47;9.20;79.60
57566;DHT22;63999;43.882;-0.310;2022-11-27T15:21:17;9.20;79.60
57566;DHT22;63999;43.882;-0.310;2022-11-27T15:23:49;9.30;79.70
57566;DHT22;63999;43.882;-0.310;2022-11-27T15:26:37;9.30;79.50
57566;DHT22;63999;43.882;-0.310;2022-11-27T15:29:29;9.20;80.00
57566;DHT22;63999;43.882;-0.310;2022-11-27T15:31:57;9.30;80.20
57566;DHT22;63999;43.882;-0.310;2022-11-27T15:34:29;9.30;79.80
57566;DHT22;63999;43.882;-0.310;2022-11-27T15:37:01;9.30;80.00
57566;DHT22;63999;43.882;-0.310;2022-11-27T15:39:51;9.40;80.20
57566;DHT22;63999;43.882;-0.310;2022-11-27T15:42:18;9.40;79.90
57566;DHT22;63999;43.882;-0.310;2022-11-27T15:44:45;9.40;79.80
57566;DHT22;63999;43.882;-0.310;2022-11-27T15:47:22;9.40;79.70
57566;DHT22;63999;43.882;-0.310;2022-11-27T15:49:51;9.40;79.90
57566;DHT22;63999;43.882;-0.310;2022-11-27T15:52:17;9.40;79.80
57566;DHT22;63999;43.882;-0.310;2022-11-27T15:54:43;9.40;79.90
57566;DHT22;63999;43.882;-0.310;2022-11-27T15:57:16;9.40;79.80
57566;DHT22;63999;43.882;-0.310;2022-11-27T15:59:51;9.40;79.80
57566;DHT22;63999;43.882;-0.310;2022-11-27T16:02:17;9.40;80.40
57566;DHT22;63999;43.882;-0.310;2022-11-27T16:04:43;9.40;79.80
57566;DHT22;63999;43.882;-0.310;2022-11-27T16:07:09;9.40;80.20
57566;DHT22;63999;43.882;-0.310;2022-11-27T16:09:36;9.40;79.80
57566;DHT22;63999;43.882;-0.310;2022-11-27T16:12:04;9.40;79.60
57566;DHT22;63999;43.882;-0.310;2022-11-27T16:14:30;9.40;79.80
57566;DHT22;63999;43.882;-0.310;2022-11-27T16:16:56;9.40;79.50
57566;DHT22;63999;43.882;-0.310;2022-11-27T16:19:23;9.40;79.60
57566;DHT22;63999;43.882;-0.310;2022-11-27T16:21:49;9.40;79.50
57566;DHT22;63999;43.882;-0.310;2022-11-27T16:24:16;9.40;79.30
57566;DHT22;63999;43.882;-0.310;2022-11-27T16:26:43;9.40;79.50
57566;DHT22;63999;43.882;-0.310;2022-11-27T16:29:09;9.50;79.60
57566;DHT22;63999;43.882;-0.310;2022-11-27T16:31:36;9.50;79.40
57566;DHT22;63999;43.882;-0.310;2022-11-27T16:34:02;9.50;80.10
57566;DHT22;63999;43.882;-0.310;2022-11-27T16:36:30;9.50;79.70
57566;DHT22;63999;43.882;-0.310;2022-11-27T16:38:57;9.40;79.80
57566;DHT22;63999;43.882;-0.310;2022-11-27T16:41:23;9.40;79.50
57566;DHT22;63999;43.882;-0.310;2022-11-27T16:43:54;9.40;79.90
57566;DHT22;63999;43.882;-0.310;2022-11-27T16:46:27;9.40;79.90
57566;DHT22;63999;43.882;-0.310;2022-11-27T16:48:55;9.40;79.60
57566;DHT22;63999;43.882;-0.310;2022-11-27T16:51:24;9.40;79.60
57566;DHT22;63999;43.882;-0.310;2022-11-27T16:53:55;9.40;79.80
57566;DHT22;63999;43.882;-0.310;2022-11-27T16:56:26;9.40;79.70
57566;DHT22;63999;43.882;-0.310;2022-11-27T16:58:53;9.40;79.70
57566;DHT22;63999;43.882;-0.310;2022-11-27T17:01:25;9.40;79.80
57566;DHT22;63999;43.882;-0.310;2022-11-27T17:03:55;9.40;79.70
57566;DHT22;63999;43.882;-0.310;2022-11-27T17:06:26;9.40;79.40
57566;DHT22;63999;43.882;-0.310;2022-11-27T17:08:57;9.40;79.80
57566;DHT22;63999;43.882;-0.310;2022-11-27T17:11:27;9.40;79.80
57566;DHT22;63999;43.882;-0.310;2022-11-27T17:13:59;9.40;79.80
57566;DHT22;63999;43.882;-0.310;2022-11-27T17:16:33;9.40;79.80
57566;DHT22;63999;43.882;-0.310;2022-11-27T17:19:00;9.40;80.00
57566;DHT22;63999;43.882;-0.310;2022-11-27T17:21:45;9.40;79.70
57566;DHT22;63999;43.882;-0.310;2022-11-27T17:24:14;9.40;79.80
57566;DHT22;63999;43.882;-0.310;2022-11-27T17:26:45;9.40;79.60
57566;DHT22;63999;43.882;-0.310;2022-11-27T17:29:17;9.40;79.60